createdAt,value
2022-10-29T00:02:43.215Z,85.53
2022-10-29T00:05:45.850Z,85.11
2022-10-29T00:08:48.429Z,83.94
2022-10-29T00:11:51.133Z,83.84
2022-10-29T00:14:55.140Z,83.85
2022-10-29T00:17:57.997Z,83.00
2022-10-29T00:21:01.899Z,83.52
2022-10-29T00:24:05.050Z,83.96
2022-10-29T00:27:07.841Z,84.58
2022-10-29T00:30:13.915Z,84.89
2022-10-29T00:36:27.824Z,86.21
2022-10-29T00:39:30.621Z,87.15
2022-10-29T00:42:33.216Z,86.21
2022-10-29T00:45:37.229Z,86.22
2022-10-29T00:48:44.536Z,86.28
2022-10-29T00:51:47.761Z,86.60
2022-10-29T00:54:51.082Z,86.78
2022-10-29T00:57:56.214Z,85.79
2022-10-29T01:01:00.437Z,85.07
2022-10-29T01:04:03.917Z,85.10
2022-10-29T01:07:06.401Z,85.19
2022-10-29T01:10:10.271Z,84.53
2022-10-29T01:13:27.752Z,84.42
2022-10-29T01:16:38.525Z,85.30
2022-10-29T01:20:16.393Z,85.32
2022-10-29T01:23:36.155Z,85.03
2022-10-29T01:26:54.680Z,85.13
2022-10-29T01:30:05.212Z,84.88
2022-10-29T01:33:12.268Z,84.79
2022-10-29T01:36:18.125Z,84.29
2022-10-29T01:39:24.035Z,84.71
2022-10-29T01:42:31.281Z,83.96
2022-10-29T01:45:36.560Z,84.44
2022-10-29T01:48:43.875Z,84.78
2022-10-29T01:51:47.567Z,84.76
2022-10-29T01:54:50.346Z,85.99
2022-10-29T01:57:53.184Z,86.16
2022-10-29T02:01:04.803Z,86.77
2022-10-29T02:04:20.849Z,87.41
2022-10-29T02:07:34.839Z,88.13
2022-10-29T02:10:41.428Z,87.88
2022-10-29T02:13:49.013Z,87.73
2022-10-29T02:16:51.771Z,87.44
2022-10-29T02:19:55.759Z,86.85
2022-10-29T02:22:58.389Z,85.72
2022-10-29T02:26:01.068Z,85.19
2022-10-29T02:29:03.784Z,84.85
2022-10-29T02:32:07.161Z,84.71
2022-10-29T02:35:11.346Z,85.41
2022-10-29T02:38:14.040Z,86.16
2022-10-29T02:41:16.567Z,85.58
2022-10-29T02:44:19.252Z,85.19
2022-10-29T02:47:22.099Z,84.54
2022-10-29T02:50:26.090Z,84.49
2022-10-29T02:53:28.709Z,84.61
2022-10-29T02:56:31.352Z,84.61
2022-10-29T02:59:34.177Z,84.33
2022-10-29T03:02:36.799Z,84.80
2022-10-29T03:05:43.002Z,84.60
2022-10-29T03:08:48.264Z,84.63
2022-10-29T03:11:50.901Z,84.44
2022-10-29T03:14:53.541Z,84.07
2022-10-29T03:17:56.467Z,84.32
2022-10-29T03:21:00.604Z,84.33
2022-10-29T03:24:03.192Z,84.25
2022-10-29T03:27:05.848Z,84.71
2022-10-29T03:30:09.900Z,85.02
2022-10-29T03:33:12.647Z,85.37
2022-10-29T03:36:16.648Z,84.81
2022-10-29T03:39:19.319Z,85.02
2022-10-29T03:42:21.859Z,85.34
2022-10-29T03:45:24.566Z,85.91
2022-10-29T03:48:27.241Z,86.44
2022-10-29T03:51:31.149Z,86.28
2022-10-29T03:54:33.765Z,85.47
2022-10-29T03:57:36.412Z,85.57
2022-10-29T04:00:39.046Z,85.86
2022-10-29T04:03:42.421Z,86.30
2022-10-29T04:06:46.517Z,85.98
2022-10-29T04:09:49.149Z,85.68
2022-10-29T04:12:51.778Z,85.70
2022-10-29T04:15:55.952Z,85.99
2022-10-29T04:18:59.090Z,86.62
2022-10-29T04:28:49.819Z,87.29
2022-10-29T04:31:52.278Z,87.10
2022-10-29T04:34:55.037Z,87.20
2022-10-29T04:37:59.126Z,87.76
2022-10-29T04:41:02.550Z,88.39
2022-10-29T04:44:05.256Z,88.91
2022-10-29T04:47:08.030Z,89.54
2022-10-29T04:50:10.945Z,89.87
2022-10-29T04:53:14.968Z,90.75
2022-10-29T04:56:17.602Z,91.06
2022-10-29T04:59:20.217Z,89.83
2022-10-29T05:02:22.828Z,90.76
2022-10-29T05:05:25.945Z,90.82
2022-10-29T05:08:30.007Z,91.02
2022-10-29T05:11:32.628Z,90.38
2022-10-29T05:14:35.342Z,90.88
2022-10-29T05:17:39.531Z,91.11
2022-10-29T05:20:42.158Z,90.80
2022-10-29T05:23:46.112Z,90.18
2022-10-29T05:26:48.718Z,91.15
2022-10-29T05:29:51.474Z,92.83
2022-10-29T05:32:54.239Z,92.71
2022-10-29T05:35:57.212Z,92.15
2022-10-29T05:39:01.215Z,92.59
2022-10-29T05:42:03.858Z,92.77
2022-10-29T05:45:07.249Z,93.11
2022-10-29T05:51:15.566Z,92.74
2022-10-29T05:54:19.899Z,94.57
2022-10-29T05:57:22.580Z,95.09
2022-10-29T06:00:25.951Z,94.75
2022-10-29T06:03:28.594Z,94.71
2022-10-29T06:06:31.560Z,93.61
2022-10-29T06:09:35.552Z,93.06
2022-10-29T06:12:38.264Z,92.91
2022-10-29T06:15:41.420Z,92.70
2022-10-29T06:18:44.246Z,92.29
2022-10-29T06:21:47.079Z,91.92
2022-10-29T06:24:51.173Z,92.00
2022-10-29T06:28:01.814Z,91.76
2022-10-29T06:31:04.484Z,92.06
2022-10-29T06:34:07.466Z,92.22
2022-10-29T06:37:10.183Z,91.87
2022-10-29T06:40:14.251Z,91.59
2022-10-29T06:43:16.940Z,92.26
2022-10-29T06:46:19.693Z,92.17
2022-10-29T06:49:22.515Z,92.06
2022-10-29T06:52:25.264Z,92.43
2022-10-29T06:55:29.571Z,91.98
2022-10-29T06:58:32.124Z,91.00
2022-10-29T07:01:34.880Z,91.21
2022-10-29T07:04:37.605Z,90.34
2022-10-29T07:07:40.538Z,90.17
2022-10-29T07:10:44.569Z,89.63
2022-10-29T07:13:47.205Z,89.16
2022-10-29T07:16:49.899Z,88.57
2022-10-29T07:19:52.591Z,88.66
2022-10-29T07:22:55.225Z,88.37
2022-10-29T07:25:59.227Z,87.60
2022-10-29T07:29:01.914Z,87.02
2022-10-29T07:32:04.793Z,85.89
2022-10-29T07:35:08.035Z,85.40
2022-10-29T07:38:12.921Z,85.03
2022-10-29T07:41:16.880Z,84.97
2022-10-29T07:44:19.618Z,84.67
2022-10-29T07:47:22.341Z,83.81
2022-10-29T07:50:25.125Z,83.10
2022-10-29T07:53:27.709Z,82.40
2022-10-29T07:56:31.704Z,81.37
2022-10-29T07:59:34.345Z,80.37
2022-10-29T08:02:37.074Z,78.74
2022-10-29T08:05:42.682Z,77.83
2022-10-29T08:08:45.871Z,76.03
2022-10-29T08:11:49.931Z,74.07
2022-10-29T08:14:52.547Z,72.52
2022-10-29T08:17:55.397Z,70.84
2022-10-29T08:20:58.263Z,68.90
2022-10-29T08:24:00.972Z,67.09
2022-10-29T08:27:05.121Z,64.23
2022-10-29T08:30:09.239Z,62.79
2022-10-29T08:33:12.200Z,62.93
2022-10-29T08:36:16.004Z,63.54
2022-10-29T08:39:18.627Z,63.17
2022-10-29T08:42:32.020Z,62.96
2022-10-29T08:45:37.780Z,62.83
2022-10-29T08:48:46.419Z,62.50
2022-10-29T08:51:54.037Z,62.26
2022-10-29T08:55:05.001Z,62.41
2022-10-29T08:58:15.177Z,62.91
2022-10-29T09:01:19.851Z,62.88
2022-10-29T09:04:27.133Z,63.66
2022-10-29T09:07:44.041Z,63.66
2022-10-29T09:10:51.307Z,63.67
2022-10-29T09:14:08.563Z,63.39
2022-10-29T09:17:21.488Z,63.44
2022-10-29T09:20:29.873Z,63.59
2022-10-29T09:23:48.966Z,62.79
2022-10-29T09:26:58.678Z,62.78
2022-10-29T09:30:09.161Z,62.32
2022-10-29T09:33:15.314Z,62.26
2022-10-29T09:36:19.640Z,61.96
2022-10-29T09:39:33.091Z,62.04
2022-10-29T09:42:39.007Z,61.44
2022-10-29T09:45:48.559Z,61.09
2022-10-29T09:48:57.911Z,60.40
2022-10-29T09:52:03.534Z,59.69
2022-10-29T09:55:08.181Z,59.16
2022-10-29T09:58:19.623Z,58.53
2022-10-29T10:01:23.802Z,57.75
2022-10-29T10:04:29.271Z,57.17
2022-10-29T10:07:31.954Z,56.61
2022-10-29T10:10:35.748Z,56.44
2022-10-29T10:13:52.728Z,55.27
2022-10-29T10:16:59.897Z,54.37
2022-10-29T10:20:02.671Z,53.88
2022-10-29T10:23:25.072Z,53.93
2022-10-29T10:26:34.273Z,53.73
2022-10-29T10:29:36.822Z,53.64
2022-10-29T10:32:40.978Z,53.73
2022-10-29T10:35:43.837Z,53.54
2022-10-29T10:38:48.159Z,53.36
2022-10-29T10:41:51.975Z,53.18
2022-10-29T10:44:58.131Z,53.19
2022-10-29T10:48:02.826Z,53.33
2022-10-29T10:51:17.939Z,53.25
2022-10-29T10:54:29.411Z,52.99
2022-10-29T10:57:34.287Z,52.97
2022-10-29T11:00:39.089Z,53.00
2022-10-29T11:03:46.382Z,53.21
2022-10-29T11:06:51.072Z,53.18
2022-10-29T11:09:55.679Z,52.34
2022-10-29T11:13:02.738Z,51.73
2022-10-29T11:16:12.819Z,51.31
2022-10-29T11:19:22.516Z,50.68
2022-10-29T11:22:29.496Z,50.85
2022-10-29T11:25:36.785Z,50.61
2022-10-29T11:28:40.624Z,50.68
2022-10-29T11:31:48.531Z,50.08
2022-10-29T11:34:57.954Z,49.64
2022-10-29T11:38:04.331Z,49.52
2022-10-29T11:41:14.331Z,49.59
2022-10-29T11:44:20.674Z,49.20
2022-10-29T11:47:56.306Z,48.76
2022-10-29T11:51:04.456Z,48.81
2022-10-29T11:54:15.517Z,48.59
2022-10-29T11:57:24.548Z,48.03
2022-10-29T12:00:32.443Z,48.13
2022-10-29T12:03:48.183Z,47.33
2022-10-29T12:07:00.618Z,46.60
2022-10-29T12:10:17.414Z,45.64
2022-10-29T12:13:35.661Z,44.30
2022-10-29T12:16:47.582Z,43.54
2022-10-29T12:19:57.055Z,43.16
2022-10-29T12:23:08.014Z,42.71
2022-10-29T12:26:17.231Z,42.68
2022-10-29T12:29:23.908Z,42.36
2022-10-29T12:32:31.219Z,42.52
2022-10-29T12:35:39.047Z,42.51
2022-10-29T12:38:44.973Z,42.01
2022-10-29T12:41:49.889Z,41.61
2022-10-29T12:45:03.043Z,38.03
2022-10-29T12:48:11.229Z,34.88
2022-10-29T12:51:18.380Z,30.00
2022-10-29T12:54:31.868Z,26.23
2022-10-29T12:57:36.129Z,23.90
2022-10-29T13:00:47.731Z,23.58
2022-10-29T13:04:11.780Z,22.93
2022-10-29T13:07:24.558Z,23.01
2022-10-29T13:10:53.855Z,24.56
2022-10-29T13:13:59.722Z,26.77
2022-10-29T13:17:04.536Z,28.45
2022-10-29T13:20:21.372Z,25.57
2022-10-29T13:23:35.921Z,23.53
2022-10-29T13:26:55.127Z,22.64
2022-10-29T13:30:20.626Z,24.36
2022-10-29T13:33:53.052Z,25.18
2022-10-29T13:37:34.679Z,25.18
2022-10-29T13:41:05.074Z,25.33
2022-10-29T13:44:13.404Z,25.80
2022-10-29T13:47:21.204Z,25.41
2022-10-29T13:50:24.029Z,26.27
2022-10-29T13:53:35.901Z,26.85
2022-10-29T13:56:43.711Z,26.20
2022-10-29T13:59:52.105Z,26.58
2022-10-29T14:02:57.700Z,28.64
2022-10-29T14:06:02.811Z,28.54
2022-10-29T14:09:14.824Z,31.53
2022-10-29T14:12:21.203Z,32.51
2022-10-29T14:15:25.290Z,32.84
2022-10-29T14:18:28.947Z,34.71
2022-10-29T14:21:39.417Z,35.88
2022-10-29T14:24:42.073Z,36.71
2022-10-29T14:27:44.599Z,37.98
2022-10-29T14:30:50.350Z,38.96
2022-10-29T14:33:57.243Z,40.45
2022-10-29T14:37:01.931Z,42.10
2022-10-29T14:40:07.707Z,43.42
2022-10-29T14:43:21.698Z,45.14
2022-10-29T14:46:27.949Z,47.79
2022-10-29T14:49:31.649Z,48.98
2022-10-29T14:52:35.614Z,49.58
2022-10-29T14:55:40.088Z,51.43
2022-10-29T14:58:42.764Z,54.35
2022-10-29T15:01:48.429Z,54.57
2022-10-29T15:04:56.373Z,56.63
2022-10-29T15:08:07.395Z,58.36
2022-10-29T15:11:35.052Z,59.40
2022-10-29T15:14:39.513Z,60.75
2022-10-29T15:17:48.776Z,62.26
2022-10-29T15:20:51.600Z,63.39
2022-10-29T15:23:57.434Z,64.11
2022-10-29T15:27:02.196Z,64.88
2022-10-29T15:30:05.923Z,65.62
2022-10-29T15:33:17.327Z,66.75
2022-10-29T15:36:19.933Z,67.48
2022-10-29T15:39:26.939Z,67.86
2022-10-29T15:42:32.135Z,68.58
2022-10-29T15:45:34.992Z,69.12
2022-10-29T15:48:39.081Z,69.83
2022-10-29T15:51:41.690Z,70.74
2022-10-29T15:54:44.573Z,71.71
2022-10-29T15:57:47.480Z,72.85
2022-10-29T16:00:50.410Z,73.87
2022-10-29T16:03:54.765Z,74.42
2022-10-29T16:06:57.593Z,74.40
2022-10-29T16:10:02.061Z,74.38
2022-10-29T16:13:04.658Z,75.10
2022-10-29T16:16:10.536Z,75.73
2022-10-29T16:19:14.582Z,76.04
2022-10-29T16:22:20.471Z,76.13
2022-10-29T16:25:25.783Z,76.08
2022-10-29T16:28:28.577Z,76.20
2022-10-29T16:31:31.320Z,75.78
2022-10-29T16:34:35.917Z,75.21
2022-10-29T16:37:38.864Z,75.53
2022-10-29T16:40:42.787Z,75.81
2022-10-29T16:43:45.873Z,75.27
2022-10-29T16:46:48.643Z,75.49
2022-10-29T16:49:52.812Z,75.41
2022-10-29T16:52:59.186Z,75.13
2022-10-29T16:56:02.481Z,75.19
2022-10-29T16:59:05.262Z,75.63
2022-10-29T17:02:09.464Z,75.91
2022-10-29T17:05:14.377Z,75.87
2022-10-29T17:08:16.985Z,75.42
2022-10-29T17:11:19.794Z,74.86
2022-10-29T17:14:22.397Z,74.81
2022-10-29T17:17:25.324Z,75.08
2022-10-29T17:20:29.394Z,75.82
2022-10-29T17:23:33.004Z,76.11
2022-10-29T17:26:35.740Z,76.40
2022-10-29T17:29:38.697Z,76.59
2022-10-29T17:32:41.398Z,76.28
2022-10-29T17:35:45.661Z,76.51
2022-10-29T17:38:48.366Z,76.46
2022-10-29T17:41:51.465Z,77.32
2022-10-29T17:44:54.464Z,77.56
2022-10-29T17:47:57.810Z,77.38
2022-10-29T17:51:03.367Z,78.08
2022-10-29T17:54:06.251Z,78.09
2022-10-29T17:57:08.923Z,78.60
2022-10-29T18:00:12.706Z,79.39
2022-10-29T18:03:15.589Z,79.29
2022-10-29T18:06:19.666Z,79.33
2022-10-29T18:09:22.431Z,79.01
2022-10-29T18:12:25.170Z,79.74
2022-10-29T18:15:28.044Z,79.63
2022-10-29T18:18:38.280Z,79.82
2022-10-29T18:21:52.377Z,80.10
2022-10-29T18:24:55.262Z,80.29
2022-10-29T18:27:57.948Z,80.74
2022-10-29T18:31:01.561Z,80.50
2022-10-29T18:34:06.492Z,80.68
2022-10-29T18:37:10.880Z,80.51
2022-10-29T18:40:13.924Z,80.79
2022-10-29T18:43:16.562Z,80.40
2022-10-29T18:46:20.006Z,80.80
2022-10-29T18:49:22.893Z,81.58
2022-10-29T18:52:27.062Z,81.66
2022-10-29T18:55:29.685Z,81.21
2022-10-29T18:58:33.347Z,81.43
2022-10-29T19:01:37.822Z,81.57
2022-10-29T19:04:40.931Z,82.88
2022-10-29T19:07:44.935Z,83.13
2022-10-29T19:10:47.612Z,82.49
2022-10-29T19:13:53.975Z,82.77
2022-10-29T19:16:56.664Z,82.39
2022-10-29T19:19:59.514Z,81.53
2022-10-29T19:23:04.041Z,81.53
2022-10-29T19:26:08.481Z,81.89
2022-10-29T19:29:13.204Z,81.19
2022-10-29T19:32:15.814Z,81.88
2022-10-29T19:35:18.990Z,81.98
2022-10-29T19:38:23.012Z,81.57
2022-10-29T19:41:26.332Z,81.51
2022-10-29T19:44:28.963Z,81.37
2022-10-29T19:47:31.757Z,81.82
2022-10-29T19:50:34.638Z,81.83
2022-10-29T19:53:40.193Z,82.48
2022-10-29T19:56:42.773Z,82.90
2022-10-29T19:59:45.483Z,82.61
2022-10-29T20:02:48.166Z,82.72
2022-10-29T20:05:50.852Z,82.94
2022-10-29T20:08:55.058Z,82.49
2022-10-29T20:11:57.721Z,82.52
2022-10-29T20:15:00.358Z,82.62
2022-10-29T20:18:02.983Z,82.00
2022-10-29T20:24:15.091Z,82.48
2022-10-29T20:27:19.238Z,83.49
2022-10-29T20:30:22.085Z,83.54
2022-10-29T20:33:24.782Z,84.17
2022-10-29T20:36:29.621Z,84.43
2022-10-29T20:39:33.749Z,84.55
2022-10-29T20:42:36.479Z,84.33
2022-10-29T20:45:39.057Z,84.83
2022-10-29T20:48:41.737Z,84.96
2022-10-29T20:51:44.369Z,85.44
2022-10-29T20:54:48.398Z,85.65
2022-10-29T20:57:51.049Z,85.90
2022-10-29T21:00:53.674Z,85.78
2022-10-29T21:03:56.661Z,85.72
2022-10-29T21:06:59.358Z,85.07
2022-10-29T21:10:03.463Z,85.11
2022-10-29T21:13:06.580Z,85.49
2022-10-29T21:16:11.329Z,85.41
2022-10-29T21:19:14.019Z,85.45
2022-10-29T21:22:18.829Z,85.62
2022-10-29T21:25:22.809Z,85.82
2022-10-29T21:28:25.472Z,85.78
2022-10-29T21:31:28.206Z,85.81
2022-10-29T21:34:30.876Z,85.74
2022-10-29T21:37:33.653Z,85.41
2022-10-29T21:40:37.558Z,85.38
2022-10-29T21:43:40.569Z,85.51
2022-10-29T21:46:43.320Z,85.86
2022-10-29T21:49:51.839Z,85.44
2022-10-29T21:52:57.393Z,85.13
2022-10-29T21:56:04.355Z,85.56
2022-10-29T21:59:07.187Z,85.45
2022-10-29T22:02:09.979Z,85.24
2022-10-29T22:05:12.875Z,85.16
2022-10-29T22:08:15.601Z,85.15
2022-10-29T22:11:19.778Z,85.15
2022-10-29T22:14:22.453Z,85.71
2022-10-29T22:17:25.325Z,85.74
2022-10-29T22:20:28.102Z,85.56
2022-10-29T22:23:30.865Z,84.85
2022-10-29T22:26:34.883Z,84.68
2022-10-29T22:29:37.475Z,84.60
2022-10-29T22:32:40.179Z,84.66
2022-10-29T22:35:42.768Z,84.65
2022-10-29T22:38:45.827Z,85.00
2022-10-29T22:41:49.750Z,85.00
2022-10-29T22:44:52.435Z,84.53
2022-10-29T22:47:55.122Z,83.88
2022-10-29T22:51:02.159Z,83.91
2022-10-29T22:54:05.213Z,84.85
2022-10-29T22:57:09.212Z,84.92
2022-10-29T23:00:13.384Z,85.24
2022-10-29T23:03:16.064Z,84.69
2022-10-29T23:06:20.505Z,84.40
2022-10-29T23:09:23.242Z,84.09
2022-10-29T23:12:27.313Z,84.15
2022-10-29T23:15:30.136Z,83.52
2022-10-29T23:18:32.777Z,82.92
2022-10-29T23:21:35.437Z,82.40
2022-10-29T23:24:38.056Z,82.02
2022-10-29T23:27:42.074Z,81.45
2022-10-29T23:30:44.719Z,81.73
2022-10-29T23:33:49.133Z,81.92
2022-10-29T23:39:55.569Z,81.58
2022-10-29T23:42:59.568Z,80.99
2022-10-29T23:46:02.642Z,81.38
2022-10-29T23:49:05.350Z,81.48
2022-10-29T23:52:08.047Z,81.24
2022-10-29T23:55:10.757Z,80.94
2022-10-29T23:58:15.267Z,80.60
